Campos Belos, Brazil
Current Conditions -  °F | °C
As of 4:00 PM on Tuesday 21 Oct 2014 (Local Time) from SBBR Reporting Station
Broken Clouds Broken Clouds  
Wind Chill: 90°   Ceiling: 3000
Heat Index: 90°   Visibility: 6mi
Dew Point: 55°   Wind: 9mph
Humidity: 31%   Direction: 140°SE
Pressure: 29.97"   Gusts: NA
Location:  13.04°S, 46.77°W
Report Text: SBBR 211800Z 14008KT 9999 BKN030 FEW035TCU 32/13 Q1015
Loading
Personal Weather Stations






























Interactive Weather Map
Tropical Storm Tracking
New forecast layout! Learn more

10-Day Weather Forecast

Advertisements
Track Severe Weather on mobile